Time;durP1;ratioP1;P1;durP2;ratioP2;P2;SDS_P1;SDS_P2;PMS_P1;PMS_P2;Temp;Humidity;BMP_temperature;BMP_pressure;BME280_temperature;BME280_humidity;BME280_pressure;Samples;Min_cycle;Max_cycle;Signal;HPM_P1;HPM_P2
2022/10/23 00:00:33;;;;;;;46.05;20.35;;;;;;;;;;5113440;28;20493;-74
2022/10/23 00:02:59;;;;;;;41.60;19.75;;;;;;;;;;5113762;28;20736;-74
2022/10/23 00:05:26;;;;;;;41.47;19.80;;;;;;;;;;5079653;28;20901;-74
2022/10/23 00:07:54;;;;;;;37.72;19.35;;;11.00;99.90;;;;;;5113178;28;20407;-74
2022/10/23 00:10:21;;;;;;;39.88;20.15;;;;;;;;;;5096505;28;20397;-74
2022/10/23 00:12:47;;;;;;;42.67;20.33;;;;;;;;;;5096182;28;20667;-74
2022/10/23 00:15:15;;;;;;;41.57;20.47;;;10.90;99.90;;;;;;5113351;28;20483;-75
2022/10/23 00:17:41;;;;;;;41.87;21.47;;;;;;;;;;5096082;28;20396;-74
2022/10/23 00:20:08;;;;;;;40.83;21.48;;;;;;;;;;5113238;28;20814;-74
2022/10/23 00:22:34;;;;;;;47.50;21.63;;;11.10;99.90;;;;;;5096085;28;20514;-74
2022/10/23 00:25:00;;;;;;;43.13;22.45;;;;;;;;;;5113294;28;20424;-74
2022/10/23 00:27:26;;;;;;;40.55;21.63;;;;;;;;;;5095986;28;20392;-74
2022/10/23 00:29:52;;;;;;;49.77;23.07;;;;;;;;;;5113055;28;20396;-74
2022/10/23 00:32:18;;;;;;;47.97;22.83;;;;;;;;;;5113015;28;20475;-74
2022/10/23 00:34:44;;;;;;;50.00;24.63;;;;;;;;;;5095849;28;20396;-74
2022/10/23 00:37:10;;;;;;;45.95;23.95;;;;;;;;;;5112656;28;20892;-74
2022/10/23 00:39:37;;;;;;;45.45;23.88;;;;;;;;;;5112937;28;20764;-74
2022/10/23 00:42:03;;;;;;;47.50;24.45;;;;;;;;;;5095551;28;20502;-74
2022/10/23 00:44:29;;;;;;;49.40;25.67;;;;;;;;;;5113005;28;20396;-74
2022/10/23 00:46:55;;;;;;;49.03;25.58;;;;;;;;;;5112667;28;20802;-74
2022/10/23 00:49:24;;;;;;;52.00;27.17;;;;;;;;;;5095600;28;20409;-74
2022/10/23 00:51:56;;;;;;;47.28;26.65;;;;;;;;;;5112395;28;20408;-74
2022/10/23 00:54:25;;;;;;;48.38;26.60;;;11.20;99.90;;;;;;5112559;28;20487;-74
2022/10/23 00:56:52;;;;;;;49.40;27.13;;;;;;;;;;5112484;28;20520;-74
2022/10/23 00:59:18;;;;;;;55.17;27.58;;;;;;;;;;5112244;28;20432;-74
2022/10/23 01:01:44;;;;;;;58.20;29.27;;;;;;;;;;5095557;28;20479;-75
2022/10/23 01:04:10;;;;;;;57.00;28.13;;;;;;;;;;5095188;28;20403;-75
2022/10/23 01:06:41;;;;;;;53.72;28.40;;;;;;;;;;5112352;28;20484;-74
2022/10/23 01:09:24;;;;;;;66.05;30.52;;;;;;;;;;5111732;28;20447;-74
2022/10/23 01:12:18;;;;;;;60.00;31.20;;;11.00;99.90;;;;;;5112272;28;20423;-74
2022/10/23 01:15:12;;;;;;;69.18;32.42;;;11.10;99.90;;;;;;5069384;28;20721;-74
2022/10/23 01:17:49;;;;;;;59.78;31.40;;;11.10;99.90;;;;;;5111704;28;20424;-74
2022/10/23 01:20:34;;;;;;;70.78;32.42;;;;;;;;;;5111676;28;20450;-74
2022/10/23 01:23:06;;;;;;;66.75;32.13;;;;;;;;;;5095087;28;20842;-75
2022/10/23 01:25:35;;;;;;;72.28;34.20;;;;;;;;;;5111728;28;20479;-75
2022/10/23 01:28:05;;;;;;;71.97;35.20;;;11.10;99.90;;;;;;5111877;28;20440;-75
2022/10/23 01:30:33;;;;;;;73.00;35.78;;;;;;;;;;5111504;28;20433;-74
2022/10/23 01:33:05;;;;;;;70.88;35.40;;;10.90;99.90;;;;;;5111565;28;20492;-75
2022/10/23 01:35:36;;;;;;;73.88;35.00;;;;;;;;;;5094476;28;20428;-75
2022/10/23 01:38:13;;;;;;;75.90;35.10;;;;;;;;;;5094375;28;20401;-75
2022/10/23 01:40:39;;;;;;;68.38;35.13;;;;;;;;;;5111096;28;20425;-75
2022/10/23 01:43:11;;;;;;;72.28;35.75;;;10.90;99.90;;;;;;5094772;28;20718;-74
2022/10/23 01:45:37;;;;;;;69.13;34.93;;;;;;;;;;5111681;28;20751;-74
2022/10/23 01:48:04;;;;;;;69.72;35.55;;;;;;;;;;5094614;28;20741;-74
2022/10/23 01:50:31;;;;;;;69.90;35.60;;;;;;;;;;5111242;28;20404;-74
2022/10/23 01:52:57;;;;;;;66.95;36.13;;;;;;;;;;5094227;28;20407;-74
2022/10/23 01:55:24;;;;;;;75.68;36.97;;;;;;;;;;5111548;28;20812;-74
2022/10/23 01:57:53;;;;;;;64.85;35.55;;;;;;;;;;5111131;28;20406;-74
2022/10/23 02:00:20;;;;;;;69.63;37.27;;;;;;;;;;5093962;28;20420;-74
2022/10/23 02:02:47;;;;;;;63.70;36.38;;;11.00;99.90;;;;;;5111085;28;20397;-75
2022/10/23 02:05:21;;;;;;;73.32;36.88;;;10.90;99.90;;;;;;5110977;28;20873;-75
2022/10/23 02:07:47;;;;;;;68.35;36.63;;;;;;;;;;5093792;28;20442;-75
2022/10/23 02:10:14;;;;;;;68.55;37.83;;;;;;;;;;5111151;28;20559;-75
2022/10/23 02:12:40;;;;;;;75.40;37.95;;;;;;;;;;5110902;28;20408;-76
2022/10/23 02:15:33;;;;;;;72.93;36.15;;;11.10;99.90;;;;;;5094115;28;20460;-74
2022/10/23 02:18:12;;;;;;;66.35;35.63;;;11.30;99.90;;;;;;5111409;28;20392;-74
2022/10/23 02:20:43;;;;;;;69.80;36.70;;;;;;;;;;5110357;28;20427;-74
2022/10/23 02:23:12;;;;;;;65.40;36.45;;;;;;;;;;5110438;28;20396;-74
2022/10/23 02:25:51;;;;;;;67.88;37.78;;;;;;;;;;5110592;28;20530;-74
2022/10/23 02:28:22;;;;;;;63.72;34.78;;;11.20;99.90;;;;;;5093643;28;20483;-74
2022/10/23 02:30:49;;;;;;;64.47;36.63;;;;;;;;;;5110859;28;20456;-74
2022/10/23 02:33:16;;;;;;;73.00;37.58;;;10.80;99.90;;;;;;5110700;28;20407;-74
2022/10/23 02:35:42;;;;;;;72.43;37.05;;;;;;;;;;5093777;28;20396;-74
2022/10/23 02:38:27;;;;;;;77.82;38.53;;;;;;;;;;5110683;28;20514;-74
2022/10/23 02:40:55;;;;;;;90.70;40.15;;;;;;;;;;5110303;28;20781;-74
2022/10/23 02:43:35;;;;;;;79.45;38.05;;;10.90;99.90;;;;;;5093228;28;20495;-74
2022/10/23 02:46:12;;;;;;;85.45;38.67;;;;;;;;;;5093489;28;20537;-74
2022/10/23 02:48:44;;;;;;;87.25;38.08;;;;;;;;;;5093766;28;20764;-74
2022/10/23 02:51:10;;;;;;;116.83;43.13;;;;;;;;;;5093416;28;21096;-74
2022/10/23 02:53:58;;;;;;;104.18;40.97;;;10.70;99.90;;;;;;5110585;28;20449;-74
2022/10/23 02:56:42;;;;;;;99.47;41.53;;;;;;;;;;5110374;28;20400;-74
2022/10/23 02:59:19;;;;;;;104.50;40.10;;;;;;;;;;5110249;28;20400;-74
2022/10/23 03:01:45;;;;;;;90.93;37.53;;;;;;;;;;5110167;28;20397;-74
2022/10/23 03:04:13;;;;;;;79.30;36.67;;;;;;;;;;5110733;28;20392;-74
2022/10/23 03:06:39;;;;;;;94.40;40.05;;;;;;;;;;5110376;28;20466;-74
2022/10/23 03:09:06;;;;;;;79.38;35.63;;;;;;;;;;5110298;28;20453;-75
2022/10/23 03:11:33;;;;;;;63.28;33.50;;;;;;;;;;5110491;28;20407;-75
2022/10/23 03:13:58;;;;;;;85.05;37.88;;;10.70;99.90;;;;;;5093397;28;20489;-75
2022/10/23 03:16:24;;;;;;;81.40;37.43;;;;;;;;;;5111639;28;20396;-75
2022/10/23 03:18:51;;;;;;;72.90;35.78;;;;;;;;;;5110186;28;20393;-75
2022/10/23 03:21:17;;;;;;;60.40;31.58;;;;;;;;;;5111526;28;20399;-75
2022/10/23 03:23:43;;;;;;;79.00;36.47;;;;;;;;;;5110374;28;20480;-75
2022/10/23 03:26:09;;;;;;;72.40;36.30;;;;;;;;;;5110158;28;20407;-75
2022/10/23 03:28:35;;;;;;;77.50;39.30;;;;;;;;;;5093364;28;20392;-74
2022/10/23 03:31:01;;;;;;;84.95;36.92;;;;;;;;;;5110365;28;20432;-74
2022/10/23 03:33:28;;;;;;;63.58;35.33;;;;;;;;;;5112820;28;20400;-74
2022/10/23 03:35:54;;;;;;;63.90;34.70;;;;;;;;;;5114346;28;20452;-74
2022/10/23 03:38:20;;;;;;;69.20;36.45;;;;;;;;;;5114353;28;20448;-74
2022/10/23 03:40:46;;;;;;;70.60;35.60;;;;;;;;;;5113862;28;20520;-74
2022/10/23 03:43:12;;;;;;;71.88;35.60;;;;;;;;;;5114029;28;20450;-74
2022/10/23 03:45:38;;;;;;;55.27;31.47;;;;;;;;;;5097067;28;20434;-74
2022/10/23 03:48:05;;;;;;;54.25;31.52;;;10.60;99.90;;;;;;5097307;28;20794;-74
2022/10/23 03:50:31;;;;;;;66.43;31.35;;;;;;;;;;5113865;28;20404;-75
2022/10/23 03:52:57;;;;;;;55.30;29.27;;;;;;;;;;5097060;28;20755;-74
2022/10/23 03:55:25;;;;;;;55.33;30.85;;;;;;;;;;5114051;28;20752;-75
2022/10/23 03:57:52;;;;;;;64.32;31.33;;;;;;;;;;5113767;28;20400;-74
2022/10/23 04:00:18;;;;;;;58.72;31.05;;;;;;;;;;5113751;28;20849;-75
2022/10/23 04:02:44;;;;;;;52.67;29.45;;;;;;;;;;5113803;28;20944;-74
2022/10/23 04:05:10;;;;;;;52.08;29.23;;;;;;;;;;5114933;28;20403;-75
2022/10/23 04:07:36;;;;;;;61.85;29.63;;;;;;;;;;5113979;28;20756;-75
2022/10/23 04:10:03;;;;;;;60.70;29.35;;;10.20;99.90;;;;;;5113847;28;20798;-75
2022/10/23 04:12:29;;;;;;;69.57;32.65;;;;;;;;;;5113492;28;20389;-75
2022/10/23 04:14:56;;;;;;;59.22;29.92;;;;;;;;;;5113520;28;20407;-75
2022/10/23 04:17:22;;;;;;;59.85;30.58;;;;;;;;;;5113394;28;20451;-75
2022/10/23 04:19:48;;;;;;;61.08;32.70;;;;;;;;;;5113177;28;20431;-75
2022/10/23 04:22:14;;;;;;;65.50;34.50;;;;;;;;;;5113208;28;20471;-75
2022/10/23 04:24:45;;;;;;;74.10;36.60;;;;;;;;;;5113183;28;20405;-75
2022/10/23 04:27:11;;;;;;;78.13;39.80;;;;;;;;;;5113422;28;20454;-75
2022/10/23 04:29:37;;;;;;;84.32;40.83;;;;;;;;;;5113101;28;20432;-74
2022/10/23 04:32:03;;;;;;;76.57;39.05;;;;;;;;;;5096099;28;20408;-75
2022/10/23 04:34:29;;;;;;;86.30;40.63;;;;;;;;;;5096268;28;20473;-74
2022/10/23 04:36:55;;;;;;;86.15;40.97;;;;;;;;;;5096290;28;20745;-74
2022/10/23 04:39:21;;;;;;;92.07;42.63;;;;;;;;;;5095982;28;20503;-74
2022/10/23 04:41:47;;;;;;;78.78;39.90;;;;;;;;;;5112933;28;20408;-74
2022/10/23 04:44:14;;;;;;;84.95;40.70;;;;;;;;;;5112175;28;20393;-75
2022/10/23 04:46:40;;;;;;;84.15;42.33;;;;;;;;;;5112869;28;20884;-74
2022/10/23 04:49:06;;;;;;;81.10;41.35;;;;;;;;;;5112840;28;20753;-74
2022/10/23 04:51:32;;;;;;;82.37;41.57;;;;;;;;;;5095760;28;20440;-75
2022/10/23 04:53:58;;;;;;;106.03;44.70;;;;;;;;;;5112990;28;20798;-74
2022/10/23 04:56:24;;;;;;;86.28;43.17;;;;;;;;;;5095539;28;20400;-74
2022/10/23 04:58:51;;;;;;;89.80;42.35;;;;;;;;;;5112752;28;20483;-74
2022/10/23 05:01:17;;;;;;;97.27;45.93;;;;;;;;;;5112694;28;20458;-74
2022/10/23 05:03:43;;;;;;;96.95;46.40;;;;;;;;;;5095821;28;20403;-74
2022/10/23 05:06:09;;;;;;;74.00;40.58;;;;;;;;;;5112779;28;20388;-73
2022/10/23 05:08:35;;;;;;;80.28;42.42;;;;;;;;;;5112821;28;20404;-74
2022/10/23 05:11:01;;;;;;;86.80;42.33;;;;;;;;;;5112368;28;20415;-74
2022/10/23 05:13:27;;;;;;;75.95;39.58;;;;;;;;;;5112294;28;20479;-74
2022/10/23 05:15:54;;;;;;;78.93;40.53;;;;;;;;;;5112397;28;20400;-75
2022/10/23 05:18:24;;;;;;;85.20;41.13;;;;;;;;;;5112274;28;20481;-74
2022/10/23 05:20:53;;;;;;;71.78;39.72;;;;;;;;;;5112206;28;20424;-74
2022/10/23 05:23:21;;;;;;;79.32;40.30;;;;;;;;;;5095320;28;20806;-74
2022/10/23 05:25:47;;;;;;;82.18;42.03;;;;;;;;;;5111868;28;20479;-74
2022/10/23 05:28:13;;;;;;;76.03;40.53;;;;;;;;;;5095255;28;20439;-74
2022/10/23 05:30:40;;;;;;;69.88;39.60;;;;;;;;;;5095232;28;20396;-74
2022/10/23 05:33:06;;;;;;;79.38;41.63;;;;;;;;;;5095399;28;20396;-74
2022/10/23 05:35:32;;;;;;;72.00;39.67;;;;;;;;;;5095082;28;20721;-75
2022/10/23 05:37:59;;;;;;;76.60;39.15;;;;;;;;;;5111772;28;20420;-75
2022/10/23 05:40:25;;;;;;;84.70;44.47;;;;;;;;;;5115850;27;20835;-75
2022/10/23 05:42:54;;;;;;;76.85;41.63;;;10.60;99.90;;;;;;5114895;27;20407;-75
2022/10/23 05:45:20;;;;;;;73.38;39.38;;;;;;;;;;5115047;27;20399;-75
2022/10/23 05:47:47;;;;;;;69.67;39.10;;;;;;;;;;5098402;27;20872;-75
2022/10/23 05:50:14;;;;;;;76.03;40.20;;;;;;;;;;5115235;27;20459;-75
2022/10/23 05:52:40;;;;;;;64.47;37.63;;;;;;;;;;5098420;27;20402;-75
2022/10/23 05:55:06;;;;;;;67.15;38.53;;;;;;;;;;5098015;27;20399;-75
2022/10/23 05:57:33;;;;;;;81.68;40.38;;;;;;;;;;5114050;27;20398;-75
2022/10/23 05:59:59;;;;;;;71.22;38.10;;;;;;;;;;5114939;27;20418;-75
2022/10/23 06:02:25;;;;;;;70.70;37.92;;;;;;;;;;5097851;27;20401;-75
2022/10/23 06:04:51;;;;;;;71.37;39.90;;;;;;;;;;5114710;27;20412;-75
2022/10/23 06:07:23;;;;;;;122.38;44.55;;;10.60;99.90;;;;;;5114908;27;20409;-75
2022/10/23 06:09:49;;;;;;;75.35;39.72;;;;;;;;;;5114678;27;20486;-75
2022/10/23 06:12:14;;;;;;;77.78;37.22;;;10.60;99.90;;;;;;5114675;27;20463;-75
2022/10/23 06:14:40;;;;;;;67.25;37.70;;;;;;;;;;5097702;27;20402;-75
2022/10/23 06:17:06;;;;;;;63.50;36.95;;;;;;;;;;5114607;27;20430;-75
2022/10/23 06:19:32;;;;;;;70.13;36.78;;;;;;;;;;5097598;27;20423;-75
2022/10/23 06:21:58;;;;;;;66.30;36.50;;;;;;;;;;5114729;27;20398;-75
2022/10/23 06:24:25;;;;;;;62.90;36.78;;;;;;;;;;5114510;27;20452;-75
2022/10/23 06:26:51;;;;;;;73.57;37.88;;;;;;;;;;5114423;27;20894;-75
2022/10/23 06:29:17;;;;;;;77.97;37.53;;;;;;;;;;5080721;27;20399;-75
2022/10/23 06:31:43;;;;;;;70.55;36.70;;;;;;;;;;5114364;27;20398;-75
2022/10/23 06:34:11;;;;;;;67.25;37.22;;;10.70;99.90;;;;;;5097635;27;20474;-75
2022/10/23 06:36:37;;;;;;;68.97;36.35;;;;;;;;;;5114375;27;20423;-76
2022/10/23 06:39:03;;;;;;;71.68;38.13;;;;;;;;;;5114318;27;20727;-76
2022/10/23 06:41:29;;;;;;;60.85;33.22;;;;;;;;;;5114177;27;20416;-76
2022/10/23 06:43:55;;;;;;;60.88;34.28;;;;;;;;;;5114082;27;20387;-76
2022/10/23 06:46:22;;;;;;;51.92;33.30;;;;;;;;;;5114057;28;20402;-76
2022/10/23 06:48:48;;;;;;;61.13;35.20;;;;;;;;;;5114063;28;20402;-76
2022/10/23 06:51:16;;;;;;;60.63;33.67;;;10.80;99.90;;;;;;5097035;27;20429;-76
2022/10/23 06:53:43;;;;;;;60.28;33.85;;;;;;;;;;5114234;28;20407;-73
2022/10/23 06:56:09;;;;;;;59.75;32.40;;;11.00;99.90;;;;;;5114012;27;20929;-75
2022/10/23 06:58:37;;;;;;;49.45;29.02;;;10.90;99.90;;;;;;5114049;27;20929;-75
2022/10/23 07:01:06;;;;;;;49.10;29.63;;;11.20;99.90;;;;;;5113742;28;20422;-74
2022/10/23 07:03:33;;;;;;;51.72;30.27;;;;;;;;;;5113836;28;20391;-75
2022/10/23 07:06:03;;;;;;;57.95;30.60;;;10.90;99.90;;;;;;5114306;28;20398;-75
2022/10/23 07:08:29;;;;;;;49.58;29.65;;;;;;;;;;5116760;27;20489;-74
2022/10/23 07:10:56;;;;;;;48.13;28.80;;;;;;;;;;5084446;27;20810;-75
2022/10/23 07:13:23;;;;;;;47.80;29.88;;;;;;;;;;5118405;27;20499;-75
2022/10/23 07:15:50;;;;;;;43.78;27.70;;;;;;;;;;5101138;27;20913;-75
2022/10/23 07:18:15;;;;;;;47.13;29.42;;;11.40;99.90;;;;;;5100907;27;20467;-75
2022/10/23 07:20:42;;;;;;;47.35;27.98;;;;;;;;;;5100845;27;20448;-75
2022/10/23 07:23:10;;;;;;;42.10;25.63;;;11.40;99.90;;;;;;5118060;27;20398;-75
2022/10/23 07:25:36;;;;;;;40.75;25.58;;;;;;;;;;5118037;27;20712;-74
2022/10/23 07:28:03;;;;;;;39.07;25.43;;;11.30;99.90;;;;;;5118053;27;20390;-75
2022/10/23 07:30:30;;;;;;;42.65;25.13;;;;;;;;;;5100679;27;20445;-75
2022/10/23 07:32:56;;;;;;;41.23;25.30;;;;;;;;;;5117797;27;20885;-75
2022/10/23 07:35:22;;;;;;;37.20;24.00;;;;;;;;;;5117746;27;20510;-74
2022/10/23 07:37:48;;;;;;;34.28;23.17;;;;;;;;;;5117643;27;20487;-75
2022/10/23 07:40:14;;;;;;;36.70;22.63;;;;;;;;;;5083740;27;20429;-75
2022/10/23 07:42:40;;;;;;;37.42;22.98;;;;;;;;;;5083763;27;20502;-75
2022/10/23 07:45:07;;;;;;;33.90;22.00;;;;;;;;;;5100673;27;20739;-75
2022/10/23 07:47:33;;;;;;;35.20;21.47;;;;;;;;;;5117603;27;20478;-75
2022/10/23 07:49:59;;;;;;;37.45;21.48;;;;;;;;;;5117679;27;20776;-75
2022/10/23 07:52:26;;;;;;;32.50;20.08;;;11.30;99.90;;;;;;5117444;27;20406;-74
2022/10/23 07:54:52;;;;;;;31.97;20.03;;;;;;;;;;5117389;27;20504;-75
2022/10/23 07:57:18;;;;;;;35.03;19.98;;;;;;;;;;5117024;27;20887;-75
2022/10/23 07:59:44;;;;;;;32.10;20.25;;;;;;;;;;5099859;27;20421;-75
2022/10/23 08:02:14;;;;;;;32.22;19.55;;;11.40;99.90;;;;;;5117525;27;20394;-76
2022/10/23 08:04:40;;;;;;;32.92;19.70;;;;;;;;;;5117065;27;20455;-75
2022/10/23 08:07:07;;;;;;;33.00;19.77;;;;;;;;;;5100130;27;20394;-75
2022/10/23 08:09:34;;;;;;;30.27;19.70;;;;;;;;;;5117111;27;20403;-75
2022/10/23 08:12:00;;;;;;;31.40;18.88;;;11.50;99.90;;;;;;5083497;27;20410;-75
2022/10/23 08:14:27;;;;;;;31.20;18.80;;;;;;;;;;5100325;27;20886;-75
2022/10/23 08:16:53;;;;;;;33.78;18.25;;;;;;;;;;5116773;27;20411;-74
2022/10/23 08:19:19;;;;;;;30.48;18.23;;;11.80;99.90;;;;;;5115865;27;20558;-75
2022/10/23 08:21:45;;;;;;;32.88;18.20;;;;;;;;;;5116638;27;20890;-74
2022/10/23 08:24:14;;;;;;;31.17;17.98;;;;;;;;;;5116833;27;20395;-75
2022/10/23 08:26:40;;;;;;;28.27;17.40;;;;;;;;;;5117406;27;20395;-73
2022/10/23 08:29:06;;;;;;;22.88;15.88;;;;;;;;;;5116856;27;20482;-74
2022/10/23 08:31:32;;;;;;;24.63;16.20;;;;;;;;;;5100098;27;20818;-74
2022/10/23 08:33:58;;;;;;;26.17;16.00;;;12.40;99.90;;;;;;5116682;27;20478;-74
2022/10/23 08:36:25;;;;;;;23.20;15.83;;;;;;;;;;5099618;27;20398;-74
2022/10/23 08:38:53;;;;;;;23.75;15.68;;;12.60;99.90;;;;;;5116843;27;20406;-74
2022/10/23 08:41:25;;;;;;;25.33;15.23;;;;;;;;;;5099495;27;20453;-74
2022/10/23 08:44:04;;;;;;;23.95;14.65;;;12.60;99.90;;;;;;5116449;27;20917;-74
2022/10/23 08:46:35;;;;;;;22.95;14.07;;;12.80;99.90;;;;;;5116271;27;20958;-75
2022/10/23 08:49:16;;;;;;;23.17;14.70;;;12.60;99.90;;;;;;5116566;27;20486;-75
2022/10/23 08:51:45;;;;;;;24.38;14.23;;;12.90;99.90;;;;;;5099615;27;20474;-75
2022/10/23 08:54:20;;;;;;;21.48;14.02;;;;;;;;;;5099053;27;20398;-75
2022/10/23 08:57:11;;;;;;;24.80;13.87;;;12.80;99.90;;;;;;5116710;27;20391;-75
2022/10/23 08:59:40;;;;;;;23.48;13.68;;;;;;;;;;5116021;27;20949;-75
2022/10/23 09:02:15;;;;;;;20.65;13.95;;;;;;;;;;5115949;27;20410;-75
2022/10/23 09:04:42;;;;;;;21.15;13.73;;;;;;;;;;5116015;27;20399;-75
2022/10/23 09:07:21;;;;;;;20.80;14.23;;;;;;;;;;5116258;27;20802;-75
2022/10/23 09:10:16;;;;;;;22.67;14.45;;;13.20;99.90;;;;;;5099408;27;20843;-74
2022/10/23 09:12:42;;;;;;;21.75;14.10;;;;;;;;;;5098838;27;20402;-74
2022/10/23 09:15:31;;;;;;;21.85;13.63;;;;;;;;;;5116076;27;20398;-74
2022/10/23 09:17:58;;;;;;;18.73;11.63;;;;;;;;;;5116013;27;20754;-74
2022/10/23 09:20:31;;;;;;;18.27;11.50;;;;;;;;;;5098457;27;20418;-74
2022/10/23 09:22:58;;;;;;;20.52;12.25;;;;;;;;;;5115533;27;20401;-74
2022/10/23 09:25:29;;;;;;;18.27;11.15;;;13.70;99.90;;;;;;5098465;27;20428;-74
2022/10/23 09:27:57;;;;;;;18.40;11.40;;;;;;;;;;5115544;27;20405;-75
2022/10/23 09:30:26;;;;;;;17.05;10.10;;;;;;;;;;5115147;27;20901;-74
2022/10/23 09:32:52;;;;;;;16.83;9.90;;;;;;;;;;5098599;27;20494;-76
2022/10/23 09:35:27;;;;;;;16.27;9.37;;;;;;;;;;5115334;27;20475;-75
2022/10/23 09:37:53;;;;;;;16.00;9.45;;;;;;;;;;5098029;27;20406;-74
2022/10/23 09:40:28;;;;;;;13.03;9.40;;;14.00;99.90;;;;;;5098357;27;20476;-74
2022/10/23 09:42:58;;;;;;;15.07;9.10;;;14.10;99.90;;;;;;5115067;27;20403;-75
2022/10/23 09:45:28;;;;;;;18.97;9.37;;;14.20;99.90;;;;;;5115091;27;20398;-75
2022/10/23 09:48:14;;;;;;;14.48;8.00;;;14.10;99.90;;;;;;5115044;27;20401;-75
2022/10/23 09:50:51;;;;;;;13.70;8.25;;;;;;;;;;5114899;27;20407;-75
2022/10/23 09:53:34;;;;;;;13.57;7.63;;;;;;;;;;5114859;27;20408;-75
2022/10/23 09:56:03;;;;;;;12.32;7.63;;;14.10;99.90;;;;;;5115114;27;20399;-75
2022/10/23 09:58:51;;;;;;;14.45;7.50;;;14.30;99.90;;;;;;5098008;27;20886;-74
2022/10/23 10:01:24;;;;;;;14.07;7.97;;;;;;;;;;5097958;27;20502;-75
2022/10/23 10:03:51;;;;;;;11.77;7.15;;;14.40;99.90;;;;;;5114706;27;20452;-74
2022/10/23 10:06:24;;;;;;;12.60;7.50;;;14.50;99.90;;;;;;5114871;27;20387;-74
2022/10/23 10:08:54;;;;;;;13.98;7.18;;;14.50;99.90;;;;;;5114773;27;20837;-74
2022/10/23 10:11:24;;;;;;;14.35;7.35;;;14.50;99.90;;;;;;5098000;27;20451;-74
2022/10/23 10:13:50;;;;;;;12.80;6.55;;;;;;;;;;5114845;27;20395;-74
2022/10/23 10:16:22;;;;;;;15.30;6.97;;;14.40;99.90;;;;;;5097644;27;20740;-74
2022/10/23 10:19:12;;;;;;;15.60;7.95;;;14.50;99.90;;;;;;5114650;27;20394;-74
2022/10/23 10:21:41;;;;;;;14.82;6.70;;;;;;;;;;5114583;27;20398;-74
2022/10/23 10:24:12;;;;;;;12.38;6.78;;;;;;;;;;5097536;27;20420;-74
2022/10/23 10:26:49;;;;;;;10.45;6.10;;;;;;;;;;5114438;27;20490;-74
2022/10/23 10:29:29;;;;;;;8.80;5.63;;;;;;;;;;5114463;27;20411;-74
2022/10/23 10:31:58;;;;;;;13.95;6.18;;;;;;;;;;5097862;27;20390;-74
2022/10/23 10:34:32;;;;;;;10.82;5.93;;;15.00;99.90;;;;;;5097357;27;20401;-74
2022/10/23 10:37:36;;;;;;;9.85;5.75;;;14.80;99.90;;;;;;5114470;27;20410;-75
2022/10/23 10:40:16;;;;;;;14.27;5.88;;;;;;;;;;5096713;27;20770;-74
2022/10/23 10:43:11;;;;;;;13.63;5.80;;;;;;;;;;5113306;27;20855;-74
2022/10/23 10:45:38;;;;;;;10.25;5.57;;;;;;;;;;5060171;27;20888;-74
2022/10/23 10:48:11;;;;;;;9.50;5.57;;;;;;;;;;5097277;27;20398;-74
2022/10/23 10:50:37;;;;;;;9.98;5.47;;;;;;;;;;5114413;27;20457;-73
2022/10/23 10:53:27;;;;;;;10.45;5.80;;;15.40;99.90;;;;;;5097532;27;20421;-74
2022/10/23 10:55:55;;;;;;;10.97;5.50;;;15.30;99.90;;;;;;5114061;28;20459;-73
2022/10/23 10:58:23;;;;;;;12.05;5.25;;;15.30;99.90;;;;;;5096902;28;20410;-74
2022/10/23 11:00:55;;;;;;;9.13;5.13;;;15.50;99.90;;;;;;5096852;28;20454;-74
2022/10/23 11:03:21;;;;;;;9.85;5.30;;;;;;;;;;5114097;28;21145;-74
2022/10/23 11:05:49;;;;;;;11.13;5.03;;;;;;;;;;5114156;28;20426;-73
2022/10/23 11:08:34;;;;;;;8.57;4.57;;;15.50;99.90;;;;;;5097062;28;20428;-73
2022/10/23 11:11:07;;;;;;;8.38;5.00;;;;;;;;;;5113990;28;20455;-74
2022/10/23 11:13:37;;;;;;;9.07;4.43;;;15.50;99.90;;;;;;5113821;27;20426;-74
2022/10/23 11:16:14;;;;;;;9.68;4.72;;;;;;;;;;5114093;27;20398;-74
2022/10/23 11:18:41;;;;;;;13.18;5.00;;;;;;;;;;5113696;28;20402;-74
2022/10/23 11:21:07;;;;;;;8.43;4.30;;;;;;;;;;5113576;27;20782;-74
2022/10/23 11:23:48;;;;;;;8.00;4.63;;;;;;;;;;5096544;28;20394;-74
2022/10/23 11:26:20;;;;;;;9.03;5.60;;;;;;;;;;5113625;27;20399;-74
2022/10/23 11:29:18;;;;;;;8.55;4.45;;;15.60;99.90;;;;;;5113723;28;20402;-74
2022/10/23 11:31:54;;;;;;;8.15;4.20;;;;;;;;;;5133014;27;20469;-74
2022/10/23 11:34:26;;;;;;;11.13;4.22;;;;;;;;;;5096464;27;20459;-74
2022/10/23 11:36:53;;;;;;;8.70;4.30;;;;;;;;;;5096549;27;20426;-74
2022/10/23 11:39:20;;;;;;;9.00;4.18;;;;;;;;;;5113581;28;20402;-73
2022/10/23 11:41:54;;;;;;;11.63;4.70;;;;;;;;;;5096832;28;20410;-74
2022/10/23 11:44:36;;;;;;;7.13;3.95;;;;;;;;;;5096797;28;20413;-74
2022/10/23 11:47:04;;;;;;;11.03;4.00;;;15.80;99.90;;;;;;5113891;28;20491;-73
2022/10/23 11:49:30;;;;;;;7.93;4.30;;;;;;;;;;5096431;28;20398;-74
2022/10/23 11:52:01;;;;;;;7.68;4.25;;;15.70;99.90;;;;;;5113597;27;20390;-74
2022/10/23 11:54:27;;;;;;;11.65;3.85;;;15.50;99.90;;;;;;5098982;27;20463;-74
2022/10/23 11:57:12;;;;;;;10.17;4.30;;;15.60;99.90;;;;;;5117166;27;20475;-74
2022/10/23 11:59:44;;;;;;;11.60;4.85;;;;;;;;;;5100578;27;20490;-75
2022/10/23 12:02:38;;;;;;;11.75;4.30;;;15.70;99.90;;;;;;5117461;27;20403;-74
2022/10/23 12:05:24;;;;;;;9.57;4.35;;;;;;;;;;5114877;27;20401;-73
2022/10/23 12:07:58;;;;;;;7.97;4.50;;;15.60;99.90;;;;;;5106537;27;20479;-74
2022/10/23 12:10:42;;;;;;;9.33;4.50;;;15.40;99.90;;;;;;5117036;27;20568;-73
2022/10/23 12:13:47;;;;;;;13.00;4.80;;;15.40;99.90;;;;;;5117146;27;20477;-74
2022/10/23 12:16:13;;;;;;;8.90;4.28;;;15.40;99.90;;;;;;5055041;28;20400;-73
2022/10/23 12:18:54;;;;;;;11.15;4.80;;;;;;;;;;5055191;28;20407;-73
2022/10/23 12:21:26;;;;;;;8.98;4.30;;;15.80;99.90;;;;;;5090607;27;20427;-73
2022/10/23 12:23:52;;;;;;;10.23;4.40;;;;;;;;;;5116853;27;20398;-73
2022/10/23 12:26:40;;;;;;;8.10;4.20;;;15.70;99.90;;;;;;5116767;27;20399;-74
2022/10/23 12:29:14;;;;;;;8.65;4.18;;;15.80;99.90;;;;;;5100131;27;20402;-74
2022/10/23 12:32:01;;;;;;;8.10;4.28;;;15.90;99.90;;;;;;5099910;27;20405;-74
2022/10/23 12:34:49;;;;;;;9.43;4.20;;;15.70;99.90;;;;;;5099474;27;20399;-74
2022/10/23 12:37:35;;;;;;;11.97;4.27;;;;;;;;;;5100160;27;20827;-75
2022/10/23 12:40:01;;;;;;;9.40;4.50;;;15.50;99.90;;;;;;5116778;27;20419;-74
2022/10/23 12:42:28;;;;;;;8.43;4.25;;;15.80;99.90;;;;;;5099254;27;20413;-75
2022/10/23 12:44:59;;;;;;;10.63;4.30;;;15.80;99.90;;;;;;5116515;27;20723;-73
2022/10/23 12:47:25;;;;;;;9.13;4.57;;;15.70;99.90;;;;;;5082365;27;20394;-73
2022/10/23 12:49:52;;;;;;;11.77;4.60;;;;;;;;;;5116199;27;20702;-74
2022/10/23 12:52:19;;;;;;;9.75;4.10;;;;;;;;;;5116239;27;20399;-73
2022/10/23 12:54:46;;;;;;;10.93;4.47;;;;;;;;;;5116114;27;20402;-74
2022/10/23 12:57:24;;;;;;;9.20;3.90;;;15.70;99.90;;;;;;5116118;27;20395;-75
2022/10/23 12:59:55;;;;;;;6.88;3.80;;;15.80;99.90;;;;;;5116075;27;20421;-75
2022/10/23 13:02:28;;;;;;;10.30;3.83;;;15.90;99.90;;;;;;5116097;27;20395;-75
2022/10/23 13:04:58;;;;;;;8.43;4.18;;;15.80;99.90;;;;;;5115467;27;20390;-73
2022/10/23 13:07:29;;;;;;;9.95;4.35;;;;;;;;;;5099113;27;20394;-74
2022/10/23 13:09:55;;;;;;;8.30;4.18;;;;;;;;;;5115851;27;20399;-74
2022/10/23 13:12:31;;;;;;;11.85;4.53;;;15.70;99.90;;;;;;5115773;27;20455;-74
2022/10/23 13:14:59;;;;;;;9.77;4.60;;;16.10;99.90;;;;;;5115701;27;20391;-74
2022/10/23 13:17:36;;;;;;;10.93;3.83;;;15.70;99.90;;;;;;5098843;27;20728;-74
2022/10/23 13:20:20;;;;;;;10.60;3.90;;;15.80;99.90;;;;;;5115766;27;20427;-74
2022/10/23 13:23:10;;;;;;;7.90;3.72;;;16.00;99.90;;;;;;5098659;27;20395;-74
2022/10/23 13:25:37;;;;;;;9.18;4.03;;;;;;;;;;5090077;27;20406;-74
2022/10/23 13:28:09;;;;;;;8.30;3.70;;;;;;;;;;5115404;27;20405;-74
2022/10/23 13:30:42;;;;;;;9.30;3.70;;;15.70;99.90;;;;;;5115303;27;20426;-74
2022/10/23 13:33:20;;;;;;;7.68;3.42;;;16.00;99.90;;;;;;5098452;27;20390;-74
2022/10/23 13:35:59;;;;;;;10.32;4.28;;;15.60;99.90;;;;;;5098324;27;20410;-74
2022/10/23 13:38:33;;;;;;;11.35;3.80;;;;;;;;;;5115476;27;20403;-74
2022/10/23 13:41:01;;;;;;;8.73;3.78;;;16.00;99.90;;;;;;5097940;27;20419;-74
2022/10/23 13:43:29;;;;;;;6.97;3.60;;;16.00;99.90;;;;;;5115286;27;20481;-74
2022/10/23 13:45:56;;;;;;;8.70;3.50;;;16.10;99.90;;;;;;5114938;27;20916;-74
2022/10/23 13:48:22;;;;;;;6.72;3.65;;;;;;;;;;5097900;27;20410;-74
2022/10/23 13:50:50;;;;;;;9.23;3.60;;;16.00;99.90;;;;;;5115057;27;20399;-74
2022/10/23 13:53:16;;;;;;;7.60;3.65;;;16.00;99.90;;;;;;5081563;27;20498;-74
2022/10/23 13:55:46;;;;;;;8.98;3.95;;;16.00;99.90;;;;;;5115264;27;20474;-75
2022/10/23 13:58:12;;;;;;;7.93;3.60;;;;;;;;;;5115153;27;20766;-75
2022/10/23 14:00:38;;;;;;;9.23;4.20;;;15.90;99.90;;;;;;5098057;27;20410;-74